Time;durP1;ratioP1;P1;durP2;ratioP2;P2;SDS_P1;SDS_P2;PMS_P1;PMS_P2;Temp;Humidity;BMP_temperature;BMP_pressure;BME280_temperature;BME280_humidity;BME280_pressure;Samples;Min_cycle;Max_cycle;Signal;HPM_P1;HPM_P2
2023/09/24 00:01:46;;;;;;;;;;;12.70;99.90;;;;;;6692019;88;20071;-76
2023/09/24 00:11:47;;;;;;;;;;;12.50;99.90;;;;;;6695395;88;20506;-76
2023/09/24 00:21:48;;;;;;;;;;;12.30;99.90;;;;;;6695007;88;20061;-76
2023/09/24 00:31:48;;;;;;;;;;;12.00;99.90;;;;;;6690492;88;20083;-76
2023/09/24 00:41:49;;;;;;;;;;;11.70;99.90;;;;;;6696545;88;20663;-76
2023/09/24 00:51:50;;;;;;;;;;;11.50;99.90;;;;;;6691813;88;20176;-77
2023/09/24 01:01:50;;;;;;;;;;;11.40;99.90;;;;;;6696981;88;20052;-76
2023/09/24 01:11:52;;;;;;;;;;;11.20;99.90;;;;;;6692603;88;20045;-76
2023/09/24 01:21:58;;;;;;;;;;;10.90;99.90;;;;;;6701235;88;20056;-75
2023/09/24 01:31:58;;;;;;;;;;;10.80;99.90;;;;;;6698536;88;20119;-76
2023/09/24 01:42:00;;;;;;;;;;;10.70;99.90;;;;;;6691241;88;20240;-76
2023/09/24 01:52:03;;;;;;;;;;;10.70;99.90;;;;;;6695460;88;20124;-76
2023/09/24 02:02:06;;;;;;;;;;;10.60;99.90;;;;;;6694356;88;20231;-76
2023/09/24 02:12:09;;;;;;;;;;;10.50;99.90;;;;;;6694654;88;20126;-76
2023/09/24 02:22:09;;;;;;;;;;;10.40;99.90;;;;;;6692710;88;20107;-76
2023/09/24 02:32:10;;;;;;;;;;;10.30;99.90;;;;;;6694548;88;20539;-76
2023/09/24 02:42:11;;;;;;;;;;;10.30;99.90;;;;;;6692371;88;20113;-76
2023/09/24 02:52:13;;;;;;;;;;;10.30;99.90;;;;;;6700263;88;20080;-76
2023/09/24 03:02:14;;;;;;;;;;;10.20;99.90;;;;;;6694301;88;20085;-76
2023/09/24 03:12:14;;;;;;;;;;;10.10;99.90;;;;;;6696949;88;20056;-76
2023/09/24 03:22:15;;;;;;;;;;;10.00;99.90;;;;;;6686640;88;20067;-76
2023/09/24 03:32:15;;;;;;;;;;;10.00;99.90;;;;;;6691581;88;20061;-76
2023/09/24 03:42:16;;;;;;;;;;;9.90;99.90;;;;;;6694347;88;20062;-74
2023/09/24 03:52:16;;;;;;;;;;;9.70;99.90;;;;;;6691894;88;20067;-73
2023/09/24 04:02:17;;;;;;;;;;;9.60;99.90;;;;;;6689958;88;20059;-73
2023/09/24 04:12:17;;;;;;;;;;;9.60;99.90;;;;;;6686251;88;20073;-74
2023/09/24 04:22:18;;;;;;;;;;;9.60;99.90;;;;;;6695626;88;20051;-74
2023/09/24 04:32:18;;;;;;;;;;;9.60;99.90;;;;;;6683512;88;20091;-73
2023/09/24 04:42:19;;;;;;;;;;;9.60;99.90;;;;;;6705474;88;20079;-74
2023/09/24 04:52:19;;;;;;;;;;;9.50;99.90;;;;;;6692804;88;20654;-73
2023/09/24 05:02:21;;;;;;;;;;;9.50;99.90;;;;;;6691146;88;20084;-74
2023/09/24 05:12:22;;;;;;;;;;;9.40;99.90;;;;;;6690134;88;20100;-74
2023/09/24 05:22:23;;;;;;;;;;;9.40;99.90;;;;;;6711442;88;20082;-76
2023/09/24 05:32:24;;;;;;;;;;;9.50;99.90;;;;;;6703252;88;20468;-75
2023/09/24 05:42:24;;;;;;;;;;;9.50;99.90;;;;;;6688076;88;20069;-74
2023/09/24 05:52:24;;;;;;;;;;;9.50;99.90;;;;;;6690716;88;20524;-75
2023/09/24 06:02:25;;;;;;;;;;;9.60;99.90;;;;;;6697930;88;20186;-77
2023/09/24 06:12:29;;;;;;;;;;;9.70;99.90;;;;;;6690086;88;20088;-75
2023/09/24 06:22:29;;;;;;;;;;;9.80;99.90;;;;;;6683141;88;20132;-75
2023/09/24 06:32:30;;;;;;;;;;;10.00;99.90;;;;;;6683300;88;20120;-75
2023/09/24 06:42:30;;;;;;;;;;;10.20;99.90;;;;;;6683078;88;20224;-76
2023/09/24 06:52:32;;;;;;;;;;;10.60;99.90;;;;;;6683338;88;20094;-76
2023/09/24 07:02:32;;;;;;;;;;;11.00;99.90;;;;;;6684016;88;20571;-76
2023/09/24 07:12:33;;;;;;;;;;;11.40;99.90;;;;;;6707187;88;20050;-77
2023/09/24 07:22:34;;;;;;;;;;;12.00;99.90;;;;;;6717636;88;20055;-77
2023/09/24 07:32:37;;;;;;;;;;;12.30;99.90;;;;;;6718000;88;20525;-77
2023/09/24 07:42:37;;;;;;;;;;;13.00;99.90;;;;;;6712582;88;20074;-77
2023/09/24 07:52:37;;;;;;;;;;;13.50;99.90;;;;;;6700103;88;20110;-77
2023/09/24 08:02:38;;;;;;;;;;;13.80;99.90;;;;;;6702250;88;20054;-78
2023/09/24 08:12:39;;;;;;;;;;;14.40;99.90;;;;;;6703994;88;20052;-76
2023/09/24 08:22:40;;;;;;;;;;;14.80;99.90;;;;;;6704000;88;20098;-74
2023/09/24 08:32:40;;;;;;;;;;;15.70;99.90;;;;;;6715951;88;20633;-77
2023/09/24 08:42:43;;;;;;;;;;;16.20;99.90;;;;;;6715001;88;20070;-77
2023/09/24 08:52:44;;;;;;;;;;;16.60;99.90;;;;;;6720719;88;20090;-77
2023/09/24 09:02:44;;;;;;;;;;;16.90;99.90;;;;;;6726422;88;20166;-77
2023/09/24 09:12:45;;;;;;;;;;;17.00;99.90;;;;;;6721455;88;20232;-81
2023/09/24 09:22:46;;;;;;;;;;;17.50;99.90;;;;;;6718230;88;20059;-78
2023/09/24 09:32:47;;;;;;;;;;;17.80;99.90;;;;;;6721943;88;20081;-78
2023/09/24 09:42:49;;;;;;;;;;;18.70;99.90;;;;;;6710252;88;20086;-78
2023/09/24 09:52:51;;;;;;;;;;;18.80;99.90;;;;;;6703927;88;20618;-78
2023/09/24 10:02:54;;;;;;;;;;;19.20;99.90;;;;;;6707291;88;20115;-78
2023/09/24 10:12:55;;;;;;;;;;;19.90;99.90;;;;;;6700393;88;20073;-79
2023/09/24 10:23:15;;;;;;;;;;;19.60;99.90;;;;;;6701570;88;20088;-79
2023/09/24 10:33:35;;;;;;;;;;;20.60;99.90;;;;;;6702815;88;20548;-79
2023/09/24 10:43:36;;;;;;;;;;;21.30;99.90;;;;;;6699846;88;20059;-79
2023/09/24 10:53:36;;;;;;;;;;;21.60;99.90;;;;;;6706336;88;20087;-79
2023/09/24 11:03:37;;;;;;;;;;;21.20;99.90;;;;;;6703393;88;21465;-79
2023/09/24 11:13:39;;;;;;;;;;;21.90;99.90;;;;;;6699762;88;20067;-79
2023/09/24 11:23:39;;;;;;;;;;;21.90;99.90;;;;;;6700093;88;20946;-79
2023/09/24 11:33:40;;;;;;;;;;;21.90;99.90;;;;;;6696523;88;20163;-79
2023/09/24 11:43:41;;;;;;;;;;;22.30;99.60;;;;;;6701526;88;20095;-78
2023/09/24 11:53:41;;;;;;;;;;;22.00;99.40;;;;;;6700452;88;20124;-78
2023/09/24 12:03:42;;;;;;;;;;;22.90;97.10;;;;;;6701329;88;20548;-79
2023/09/24 12:13:42;;;;;;;;;;;22.70;95.60;;;;;;6694681;88;20064;-78
2023/09/24 12:23:45;;;;;;;;;;;22.20;94.90;;;;;;6703158;88;20060;-76
2023/09/24 12:33:46;;;;;;;;;;;23.30;95.10;;;;;;6684787;88;20378;-75
2023/09/24 12:43:48;;;;;;;;;;;22.90;95.40;;;;;;6687696;88;20109;-75
2023/09/24 12:53:49;;;;;;;;;;;23.20;95.10;;;;;;6686755;88;20090;-75
2023/09/24 13:03:49;;;;;;;;;;;23.40;95.10;;;;;;6685434;88;20052;-75
2023/09/24 13:13:50;;;;;;;;;;;23.40;94.80;;;;;;6689710;88;20076;-75
2023/09/24 13:23:51;;;;;;;;;;;23.90;93.00;;;;;;6684402;88;20103;-76
2023/09/24 13:33:51;;;;;;;;;;;23.10;93.30;;;;;;6685953;88;20524;-76
2023/09/24 13:43:52;;;;;;;;;;;23.50;93.10;;;;;;6690717;88;20240;-75
2023/09/24 13:53:53;;;;;;;;;;;23.60;93.90;;;;;;6697415;88;21870;-75
2023/09/24 14:03:53;;;;;;;;;;;23.00;94.90;;;;;;6692989;88;20064;-74
2023/09/24 14:13:54;;;;;;;;;;;22.60;96.70;;;;;;6689694;88;20530;-73
2023/09/24 14:23:54;;;;;;;;;;;23.10;96.10;;;;;;6687972;88;20563;-74
2023/09/24 14:33:55;;;;;;;;;;;22.60;96.80;;;;;;6688878;88;20109;-74
2023/09/24 14:43:56;;;;;;;;;;;22.70;96.90;;;;;;6684598;88;20065;-74
2023/09/24 14:53:58;;;;;;;;;;;23.70;96.90;;;;;;6689445;88;20062;-74
2023/09/24 15:03:59;;;;;;;;;;;22.40;96.90;;;;;;6692453;88;20055;-73
2023/09/24 15:13:59;;;;;;;;;;;22.20;96.50;;;;;;6690345;88;20522;-74
2023/09/24 15:24:00;;;;;;;;;;;22.10;96.40;;;;;;6693582;88;20168;-75
2023/09/24 15:34:00;;;;;;;;;;;22.50;96.00;;;;;;6684173;88;20206;-74
2023/09/24 15:44:00;;;;;;;;;;;21.90;96.70;;;;;;6689749;88;21303;-74
2023/09/24 15:54:01;;;;;;;;;;;21.90;96.20;;;;;;6690532;88;20100;-74
2023/09/24 16:04:01;;;;;;;;;;;21.80;96.40;;;;;;6687106;88;20112;-76
2023/09/24 16:14:02;;;;;;;;;;;21.80;96.40;;;;;;6689498;88;20593;-75
2023/09/24 16:24:03;;;;;;;;;;;21.40;95.50;;;;;;6687093;88;20099;-75
2023/09/24 16:34:03;;;;;;;;;;;21.10;95.20;;;;;;6687650;88;20072;-75
2023/09/24 16:44:04;;;;;;;;;;;20.80;96.00;;;;;;6689627;88;20181;-74
2023/09/24 16:54:05;;;;;;;;;;;20.40;96.50;;;;;;6694969;88;20179;-76
2023/09/24 17:04:06;;;;;;;;;;;20.10;97.00;;;;;;6691511;88;20092;-77
2023/09/24 17:14:06;;;;;;;;;;;19.60;98.00;;;;;;6687245;88;20074;-77
2023/09/24 17:24:07;;;;;;;;;;;19.30;98.90;;;;;;6696119;88;20059;-80
2023/09/24 17:34:08;;;;;;;;;;;18.90;99.70;;;;;;6701043;88;20067;-74
2023/09/24 17:44:10;;;;;;;;;;;18.30;99.90;;;;;;6689795;88;20646;-74
2023/09/24 17:54:10;;;;;;;;;;;18.00;99.90;;;;;;6689512;88;20083;-74
2023/09/24 18:04:11;;;;;;;;;;;17.60;99.90;;;;;;6701078;88;20087;-78
2023/09/24 18:14:11;;;;;;;;;;;17.20;99.90;;;;;;6698925;88;20090;-76
2023/09/24 18:24:13;;;;;;;;;;;16.90;99.90;;;;;;6702834;88;20144;-77
2023/09/24 18:34:13;;;;;;;;;;;16.70;99.90;;;;;;6701328;88;20216;-78
2023/09/24 18:44:14;;;;;;;;;;;16.50;99.90;;;;;;6701592;88;20160;-78
2023/09/24 18:54:15;;;;;;;;;;;16.10;99.90;;;;;;6693914;88;20085;-78
2023/09/24 19:04:15;;;;;;;;;;;15.80;99.90;;;;;;6698891;88;20150;-78
2023/09/24 19:14:16;;;;;;;;;;;15.60;99.90;;;;;;6701090;88;20104;-78
2023/09/24 19:24:16;;;;;;;;;;;15.40;99.90;;;;;;6706137;88;20063;-79
2023/09/24 19:34:17;;;;;;;;;;;15.20;99.90;;;;;;6701477;88;20068;-77
2023/09/24 19:44:19;;;;;;;;;;;15.00;99.90;;;;;;6699098;88;20051;-77
2023/09/24 19:54:19;;;;;;;;;;;14.70;99.90;;;;;;6692681;88;20047;-79
2023/09/24 20:04:20;;;;;;;;;;;14.60;99.90;;;;;;6705528;88;20071;-77
2023/09/24 20:14:21;;;;;;;;;;;14.50;99.90;;;;;;6693663;88;20077;-78
2023/09/24 20:24:21;;;;;;;;;;;14.60;99.90;;;;;;6691249;88;20074;-79
2023/09/24 20:34:21;;;;;;;;;;;14.60;99.90;;;;;;6703848;88;20080;-81
2023/09/24 20:44:22;;;;;;;;;;;14.60;99.90;;;;;;6704746;88;20105;-79
2023/09/24 20:54:22;;;;;;;;;;;14.60;99.90;;;;;;6703474;88;20085;-79
2023/09/24 21:04:23;;;;;;;;;;;14.40;99.90;;;;;;6704481;88;20077;-78
2023/09/24 21:14:23;;;;;;;;;;;14.00;99.90;;;;;;6706621;88;20060;-78
2023/09/24 21:24:24;;;;;;;;;;;13.80;99.90;;;;;;6705027;88;20683;-78
2023/09/24 21:34:24;;;;;;;;;;;13.60;99.90;;;;;;6692540;88;20079;-78
2023/09/24 21:44:25;;;;;;;;;;;13.50;99.90;;;;;;6696765;88;20055;-78
2023/09/24 21:54:25;;;;;;;;;;;13.40;99.90;;;;;;6693952;88;20277;-79
2023/09/24 22:04:26;;;;;;;;;;;13.20;99.90;;;;;;6704429;88;20615;-79
2023/09/24 22:14:26;;;;;;;;;;;13.00;99.90;;;;;;6702168;88;20151;-79
2023/09/24 22:24:27;;;;;;;;;;;13.00;99.90;;;;;;6699907;88;20225;-77
2023/09/24 22:34:27;;;;;;;;;;;12.90;99.90;;;;;;6706342;88;20073;-79
2023/09/24 22:44:27;;;;;;;;;;;12.80;99.90;;;;;;6708841;88;20055;-80
2023/09/24 22:54:28;;;;;;;;;;;12.80;99.90;;;;;;6697394;88;20150;-80
2023/09/24 23:04:29;;;;;;;;;;;12.70;99.90;;;;;;6708592;88;20178;-80
2023/09/24 23:14:29;;;;;;;;;;;12.90;99.90;;;;;;6712740;88;20078;-79
2023/09/24 23:24:30;;;;;;;;;;;12.80;99.90;;;;;;6706944;88;20059;-78
2023/09/24 23:34:30;;;;;;;;;;;12.80;99.90;;;;;;6700090;88;20059;-81
2023/09/24 23:44:31;;;;;;;;;;;12.70;99.90;;;;;;6704503;88;20104;-81
2023/09/24 23:54:32;;;;;;;;;;;12.70;99.90;;;;;;6700754;88;20117;-78
